Terminal Aerodrome Forecast
Issued by NWS Louisville, KY

Home | Current Version | Previous Version | Text Only | Print | Product List | Glossary On
Versions: 1 2 3 4 5 6 7 8 9 10 11 12 13 14 15 16 17 18 19 20
000
FTUS43 KLMK 301728
TAFSDF
TAF
KSDF 301728Z 3018/0124 18015G24KT P6SM VCSH SCT040 BKN200
     FM302300 17018G26KT P6SM VCTS SCT040CB BKN100
      TEMPO 0103/0107 3SM -TSRA BKN030CB
     FM010800 21013KT 6SM BR VCSH BKN040
     FM011100 20011KT P6SM BKN040
     FM011400 22019G29KT P6SM SCT040 BKN100=

USA.gov is the U.S. government's official web portal to all federal, state and local government web resources and services.